EGCC

Manchester Airport

Manchester, United Kingdom
METAR EGCC 160620Z AUTO VRB02KT 9999 OVC023 18/15 Q1013 NOSIG
Observed Flight Rules
Jul-16 @ 06:20 UTC (35 minutes ago) Marginal Visual Flight Rules
Wind Visibility Clouds
Variable at 2 knots 10,000+ meters
  • Overcast at 2,300' AGL
Temperatures Readings
Current 18°C / 64°F
Dewpoint 15°C / 59°F
Humidity 83%
Altimeter 29.91" Hg
Pressure 1013 hPa
Elevation 78
METAR EGCC 160620Z AUTO VRB02KT 9999 OVC023 18/15 Q1013 NOSIG
Observed Flight Rules
Jul-16 @ 06:20 UTC
(35 minutes ago)
MVFR
Wind Visibility
Variable at 2 knots 10,000+ meters
Clouds
  • Overcast at 2,300' AGL
Temperature Dewpoint
18°C / 64°F 15°C / 59°F
Humidity Altimeter Pressure
83% 29.91" Hg 1013 hPa